Time;durP1;ratioP1;P1;durP2;ratioP2;P2;SDS_P1;SDS_P2;PMS_P1;PMS_P2;Temp;Humidity;BMP_temperature;BMP_pressure;BME280_temperature;BME280_humidity;BME280_pressure;Samples;Min_cycle;Max_cycle;Signal;HPM_P1;HPM_P2
2022/06/10 00:00:35;;;;;;;;;;;;;;;21.63;63.24;99993.22;7408632;19;1679;-56
2022/06/10 00:03:03;;;;;;;;;;;;;;;21.67;63.45;100004.50;7408622;19;1761;-56
2022/06/10 00:05:36;;;;;;;;;;;;;;;21.64;63.06;99999.44;7408023;19;1376;-56
2022/06/10 00:08:08;;;;;;;;;;;;;;;21.63;63.34;100008.53;7408518;19;1468;-56
2022/06/10 00:10:36;;;;;;;;;;;;;;;21.62;63.11;100020.31;7407318;19;1558;-56
2022/06/10 00:13:05;;;;;;;;;;;;;;;21.61;63.37;100010.56;7407790;19;1861;-56
2022/06/10 00:15:34;;;;;;;;;;;;;;;21.55;63.43;100012.09;7408764;19;1646;-56
2022/06/10 00:18:03;;;;;;;;;;;;;;;21.59;63.07;100017.97;7408275;19;1757;-55
2022/06/10 00:20:32;;;;;;;;;;;;;;;21.58;63.04;100005.50;7408514;19;1442;-55
2022/06/10 00:23:01;;;;;;;;;;;;;;;21.58;63.02;100005.50;7408895;19;1373;-55
2022/06/10 00:25:32;;;;;;;;;;;;;;;21.62;62.71;100012.22;7407795;19;1485;-55
2022/06/10 00:28:01;;;;;;;;;;;;;;;21.60;62.90;100001.63;7408568;19;1362;-55
2022/06/10 00:30:31;;;;;;;;;;;;;;;21.56;62.98;100003.00;7408144;19;1387;-55
2022/06/10 00:32:59;;;;;;;;;;;;;;;21.59;62.96;100007.22;7406911;19;1859;-55
2022/06/10 00:35:28;;;;;;;;;;;;;;;21.57;62.80;100006.53;7408075;19;1418;-55
2022/06/10 00:37:57;;;;;;;;;;;;;;;21.58;62.67;100018.97;7407951;19;1299;-55
2022/06/10 00:40:26;;;;;;;;;;;;;;;21.55;62.60;100005.88;7407699;19;1549;-55
2022/06/10 00:42:57;;;;;;;;;;;;;;;21.54;62.72;100013.06;7408046;19;1264;-55
2022/06/10 00:45:41;;;;;;;;;;;;;;;21.56;62.83;100007.53;7407634;19;1505;-55
2022/06/10 00:48:11;;;;;;;;;;;;;;;21.55;62.88;100008.56;7407334;19;1550;-55
2022/06/10 00:50:40;;;;;;;;;;;;;;;21.53;62.62;100007.91;7407646;19;1669;-55
2022/06/10 00:53:10;;;;;;;;;;;;;;;21.56;62.82;100019.13;7406044;19;1960;-55
2022/06/10 00:55:38;;;;;;;;;;;;;;;21.53;62.89;100014.09;7407354;19;1513;-55
2022/06/10 00:58:11;;;;;;;;;;;;;;;21.52;62.44;100008.88;7407666;19;1271;-55
2022/06/10 01:00:40;;;;;;;;;;;;;;;21.51;62.71;100009.91;7407325;19;1382;-55
2022/06/10 01:03:08;;;;;;;;;;;;;;;21.55;62.30;100033.59;7405739;19;1517;-55
2022/06/10 01:05:37;;;;;;;;;;;;;;;21.52;62.29;100025.88;7406534;19;1635;-55
2022/06/10 01:08:06;;;;;;;;;;;;;;;21.53;62.23;100013.28;7406194;19;1552;-55
2022/06/10 01:10:39;;;;;;;;;;;;;;;21.52;62.07;100014.25;7405431;19;1421;-55
2022/06/10 01:13:17;;;;;;;;;;;;;;;21.50;62.23;100013.59;7405887;19;1868;-55
2022/06/10 01:15:51;;;;;;;;;;;;;;;21.48;62.23;100024.53;7407861;19;1287;-55
2022/06/10 01:18:28;;;;;;;;;;;;;;;21.47;62.38;100024.69;7407016;19;1362;-55
2022/06/10 01:21:02;;;;;;;;;;;;;;;21.45;62.19;100020.34;7407208;19;1706;-55
2022/06/10 01:23:55;;;;;;;;;;;;;;;21.50;62.16;100021.66;7406771;19;1403;-55
2022/06/10 01:27:47;;;;;;;;;;;;;;;21.46;62.11;100013.09;7406676;19;1375;-55
2022/06/10 01:29:41;;;;;;;;;;;;;;;21.45;62.14;100017.63;7405174;19;1669;-55
2022/06/10 01:32:15;;;;;;;;;;;;;;;21.47;61.89;100003.16;7405350;19;1868;-55
2022/06/10 01:34:47;;;;;;;;;;;;;;;21.47;61.97;100006.72;7405091;19;1383;-55
2022/06/10 01:37:18;;;;;;;;;;;;;;;21.46;61.96;100007.72;7405297;19;1462;-55
2022/06/10 01:39:50;;;;;;;;;;;;;;;21.44;61.99;100009.72;7404835;19;1499;-55
2022/06/10 01:42:30;;;;;;;;;;;;;;;21.42;62.06;100000.97;7406363;19;1358;-55
2022/06/10 01:45:05;;;;;;;;;;;;;;;21.37;62.08;100024.84;7405056;19;1387;-55
2022/06/10 01:47:38;;;;;;;;;;;;;;;21.39;61.97;100012.91;7406057;19;1554;-55
2022/06/10 01:50:12;;;;;;;;;;;;;;;21.39;61.74;99991.41;7405139;19;1358;-55
2022/06/10 01:52:45;;;;;;;;;;;;;;;21.40;61.97;100013.75;7405004;19;1862;-55
2022/06/10 01:55:18;;;;;;;;;;;;;;;21.40;62.03;100017.25;7405023;19;1462;-55
2022/06/10 01:57:49;;;;;;;;;;;;;;;21.38;61.82;100016.59;7405247;19;1272;-55
2022/06/10 02:00:20;;;;;;;;;;;;;;;21.32;62.33;100021.81;7404243;19;1465;-55
2022/06/10 02:02:56;;;;;;;;;;;;;;;21.35;62.41;100011.56;7398163;19;1595;-55
2022/06/10 02:05:27;;;;;;;;;;;;;;;21.43;62.09;100016.97;7403197;19;1360;-55
2022/06/10 02:07:58;;;;;;;;;;;;;;;21.41;62.25;100010.06;7404134;19;1288;-55
2022/06/10 02:10:29;;;;;;;;;;;;;;;21.39;61.96;100023.66;7402540;19;1561;-55
2022/06/10 02:13:00;;;;;;;;;;;;;;;21.42;61.99;100007.19;7405001;19;1852;-55
2022/06/10 02:15:31;;;;;;;;;;;;;;;21.45;62.04;100023.03;7403017;19;1315;-55
2022/06/10 02:18:06;;;;;;;;;;;;;;;21.41;62.18;100010.91;7404484;19;1545;-55
2022/06/10 02:20:38;;;;;;;;;;;;;;;21.44;62.05;100033.94;7404678;19;1545;-55
2022/06/10 02:23:08;;;;;;;;;;;;;;;21.47;61.86;100040.81;7404029;19;1489;-55
2022/06/10 02:25:39;;;;;;;;;;;;;;;21.44;62.32;100032.09;7403828;19;1531;-55
2022/06/10 02:28:10;;;;;;;;;;;;;;;21.49;62.28;100038.81;7403953;19;1341;-55
2022/06/10 02:30:42;;;;;;;;;;;;;;;21.47;62.63;100059.66;7405042;19;1327;-55
2022/06/10 02:33:14;;;;;;;;;;;;;;;21.45;62.48;100044.53;7403389;19;1887;-55
2022/06/10 02:35:46;;;;;;;;;;;;;;;21.57;62.88;100069.25;7399849;19;1632;-55
2022/06/10 02:38:18;;;;;;;;;;;;;;;21.54;62.32;100069.56;7401987;19;1176;-55
2022/06/10 02:40:49;;;;;;;;;;;;;;;21.50;62.37;100068.22;7400085;19;1274;-55
2022/06/10 02:43:21;;;;;;;;;;;;;;;21.45;62.50;100062.53;7404195;19;1343;-55
2022/06/10 02:45:55;;;;;;;;;;;;;;;21.37;62.55;100057.13;7402640;19;1339;-56
2022/06/10 02:48:30;;;;;;;;;;;;;;;21.29;62.90;100060.66;7401913;19;1095;-55
2022/06/10 02:50:59;;;;;;;;;;;;;;;21.20;63.29;100051.72;7398575;19;1287;-56
2022/06/10 02:53:27;;;;;;;;;;;;;;;21.23;63.35;100072.09;7398754;19;1857;-55
2022/06/10 02:55:56;;;;;;;;;;;;;;;21.22;63.45;100065.84;7402924;19;1318;-55
2022/06/10 03:01:16;;;;;;;;;;;;;;;21.16;63.57;100065.69;7402239;19;1207;-55
2022/06/10 03:04:09;;;;;;;;;;;;;;;21.15;63.77;100074.75;7404146;19;1307;-55
2022/06/10 03:06:41;;;;;;;;;;;;;;;21.26;63.48;100074.41;7403437;19;1308;-55
2022/06/10 03:09:13;;;;;;;;;;;;;;;21.34;63.40;100084.34;7404380;19;1318;-55
2022/06/10 03:11:43;;;;;;;;;;;;;;;21.35;63.20;100086.88;7401741;19;1425;-55
2022/06/10 03:14:14;;;;;;;;;;;;;;;21.39;63.15;100087.38;7401436;19;1868;-55
2022/06/10 03:16:56;;;;;;;;;;;;;;;21.40;63.03;100103.34;7402502;19;1595;-55
2022/06/10 03:19:36;;;;;;;;;;;;;;;21.41;62.93;100088.06;7403604;19;1540;-55
2022/06/10 03:22:09;;;;;;;;;;;;;;;21.41;63.43;100096.97;7402977;19;1584;-55
2022/06/10 03:24:41;;;;;;;;;;;;;;;21.36;63.32;100093.09;7403079;19;1393;-56
2022/06/10 03:27:14;;;;;;;;;;;;;;;21.36;63.55;100096.63;7409670;19;1410;-56
2022/06/10 03:29:47;;;;;;;;;;;;;;;21.35;63.67;100107.56;7408365;19;1564;-55
2022/06/10 03:32:19;;;;;;;;;;;;;;;21.33;63.58;100067.38;7409554;19;1474;-56
2022/06/10 03:34:52;;;;;;;;;;;;;;;21.35;63.87;100092.25;7407002;19;1858;-55
2022/06/10 03:37:22;;;;;;;;;;;;;;;21.36;64.09;100093.91;7409811;19;1474;-55
2022/06/10 03:39:54;;;;;;;;;;;;;;;21.41;63.99;100106.88;7408884;19;1584;-55
2022/06/10 03:42:25;;;;;;;;;;;;;;;21.38;63.85;100102.66;7410800;19;1548;-56
2022/06/10 03:44:54;;;;;;;;;;;;;;;21.42;64.12;100109.38;7408974;19;1488;-55
2022/06/10 03:47:25;;;;;;;;;;;;;;;21.42;63.99;100109.38;7409516;19;1462;-55
2022/06/10 03:49:58;;;;;;;;;;;;;;;21.43;63.94;100110.28;7409490;19;1350;-55
2022/06/10 03:52:28;;;;;;;;;;;;;;;21.44;64.03;100123.53;7409612;19;1560;-55
2022/06/10 03:54:57;;;;;;;;;;;;;;;21.40;64.41;100110.56;7406526;19;1847;-55
2022/06/10 03:57:25;;;;;;;;;;;;;;;21.39;64.38;100111.59;7409613;19;1473;-53
2022/06/10 03:59:54;;;;;;;;;;;;;;;21.40;64.35;100111.41;7408372;19;1887;-56
2022/06/10 04:02:22;;;;;;;;;;;;;;;21.39;64.24;100087.38;7406964;19;1564;-55
2022/06/10 04:04:51;;;;;;;;;;;;;;;21.41;64.66;100107.72;7408691;19;1342;-55
2022/06/10 04:07:22;;;;;;;;;;;;;;;21.43;64.53;100111.13;7407801;19;1501;-56
2022/06/10 04:09:51;;;;;;;;;;;;;;;21.44;64.57;100118.16;7405868;19;1530;-55
2022/06/10 04:12:21;;;;;;;;;;;;;;;21.47;64.51;100113.44;7409412;19;1385;-55
2022/06/10 04:14:50;;;;;;;;;;;;;;;21.47;64.30;100116.16;7404913;19;1840;-55
2022/06/10 04:17:19;;;;;;;;;;;;;;;21.53;64.32;100134.34;7406979;19;1407;-55
2022/06/10 04:19:47;;;;;;;;;;;;;;;21.56;64.55;100115.97;7407328;19;1325;-55
2022/06/10 04:22:16;;;;;;;;;;;;;;;21.63;64.32;100126.94;7408230;19;1537;-55
2022/06/10 04:24:47;;;;;;;;;;;;;;;21.64;64.35;100120.53;7408002;19;1330;-55
2022/06/10 04:27:15;;;;;;;;;;;;;;;21.71;64.13;100129.63;7408643;19;1401;-55
2022/06/10 04:29:43;;;;;;;;;;;;;;;21.75;64.18;100136.34;7406819;19;1426;-55
2022/06/10 04:32:12;;;;;;;;;;;;;;;21.83;64.04;100139.03;7407563;19;1525;-56
2022/06/10 04:34:40;;;;;;;;;;;;;;;21.84;63.81;100143.41;7405288;19;1842;-56
2022/06/10 04:37:09;;;;;;;;;;;;;;;21.90;63.70;100143.72;7406126;19;1514;-56
2022/06/10 04:39:37;;;;;;;;;;;;;;;21.95;63.68;100150.28;7407978;19;1385;-57
2022/06/10 04:42:09;;;;;;;;;;;;;;;21.92;63.89;100129.06;7408223;19;1465;-56
2022/06/10 04:44:38;;;;;;;;;;;;;;;21.93;63.74;100138.00;7406557;19;1463;-56
2022/06/10 04:47:07;;;;;;;;;;;;;;;21.98;64.04;100154.47;7407108;19;1584;-55
2022/06/10 04:49:36;;;;;;;;;;;;;;;21.95;64.04;100139.53;7405780;19;1275;-59
2022/06/10 04:52:05;;;;;;;;;;;;;;;21.97;63.73;100133.97;7406233;19;1498;-56
2022/06/10 04:57:35;;;;;;;;;;;;;;;21.95;64.09;100144.06;7408224;19;1381;-56
2022/06/10 05:00:03;;;;;;;;;;;;;;;21.99;64.24;100156.19;7407073;19;1354;-58
2022/06/10 05:02:33;;;;;;;;;;;;;;;21.94;63.93;100153.13;7402829;19;1531;-52
2022/06/10 05:05:02;;;;;;;;;;;;;;;21.98;64.17;100157.16;7406623;19;1608;-63
2022/06/10 05:07:30;;;;;;;;;;;;;;;21.97;64.25;100160.88;7407549;19;1396;-57
2022/06/10 05:09:59;;;;;;;;;;;;;;;21.98;64.81;100162.56;7405912;19;1425;-56
2022/06/10 05:12:27;;;;;;;;;;;;;;;22.04;64.32;100148.41;7408088;19;1530;-56
2022/06/10 05:14:58;;;;;;;;;;;;;;;22.01;64.77;100148.78;7405204;19;1861;-56
2022/06/10 05:17:26;;;;;;;;;;;;;;;22.10;64.41;100157.66;7406200;19;1553;-56
2022/06/10 05:19:55;;;;;;;;;;;;;;;22.05;64.48;100168.97;7406504;19;1386;-57
2022/06/10 05:22:23;;;;;;;;;;;;;;;22.05;64.95;100144.72;7405659;19;1565;-59
2022/06/10 05:24:51;;;;;;;;;;;;;;;22.11;64.41;100184.44;7405897;19;1635;-55
2022/06/10 05:27:20;;;;;;;;;;;;;;;21.66;66.01;100185.78;7406641;19;1267;-56
2022/06/10 05:29:48;;;;;;;;;;;;;;;21.78;65.39;100197.88;7405010;19;1517;-55
2022/06/10 05:32:19;;;;;;;;;;;;;;;21.82;65.16;100184.94;7406586;19;1561;-55
2022/06/10 05:34:48;;;;;;;;;;;;;;;21.89;65.36;100191.34;7402451;19;1860;-56
2022/06/10 05:37:17;;;;;;;;;;;;;;;21.80;65.19;100177.03;7404780;19;1367;-55
2022/06/10 05:39:46;;;;;;;;;;;;;;;21.80;65.13;100193.19;7405048;19;1371;-56
2022/06/10 05:42:14;;;;;;;;;;;;;;;21.92;64.88;100201.75;7407573;19;964;-56
2022/06/10 05:44:43;;;;;;;;;;;;;;;21.83;65.34;100187.47;7405159;19;1498;-56
2022/06/10 05:47:12;;;;;;;;;;;;;;;21.84;65.15;100186.47;7405301;19;1765;-56
2022/06/10 05:49:45;;;;;;;;;;;;;;;21.89;65.32;100201.28;7402259;19;1429;-56
2022/06/10 05:52:14;;;;;;;;;;;;;;;21.84;65.02;100204.44;7404794;19;1623;-56
2022/06/10 05:54:43;;;;;;;;;;;;;;;21.86;65.22;100218.59;7402763;19;1833;-56
2022/06/10 05:57:12;;;;;;;;;;;;;;;21.84;64.83;100197.25;7406751;19;1040;-56
2022/06/10 05:59:40;;;;;;;;;;;;;;;21.81;64.97;100199.44;7403721;19;1517;-56
2022/06/10 06:02:13;;;;;;;;;;;;;;;21.86;65.15;100213.19;7403256;19;1552;-56
2022/06/10 06:04:44;;;;;;;;;;;;;;;21.84;65.18;100194.56;7404397;19;1348;-56
2022/06/10 06:07:13;;;;;;;;;;;;;;;21.93;65.15;100232.25;7403602;19;1567;-56
2022/06/10 06:09:42;;;;;;;;;;;;;;;21.84;64.79;100210.69;7405835;19;1432;-56
2022/06/10 06:12:11;;;;;;;;;;;;;;;21.84;65.26;100207.16;7406163;19;954;-56
2022/06/10 06:14:39;;;;;;;;;;;;;;;21.82;65.21;100207.31;7403044;19;1851;-56
2022/06/10 06:17:08;;;;;;;;;;;;;;;21.87;65.05;100214.91;7404340;19;1610;-55
2022/06/10 06:19:37;;;;;;;;;;;;;;;21.89;65.00;100222.81;7404285;19;1356;-55
2022/06/10 06:22:08;;;;;;;;;;;;;;;21.88;65.08;100216.56;7403631;19;1567;-56
2022/06/10 06:24:37;;;;;;;;;;;;;;;21.89;65.18;100220.13;7405138;19;1446;-56
2022/06/10 06:27:05;;;;;;;;;;;;;;;21.97;64.84;100220.13;7406605;19;933;-55
2022/06/10 06:29:34;;;;;;;;;;;;;;;21.92;64.79;100211.69;7403398;19;1553;-56
2022/06/10 06:32:02;;;;;;;;;;;;;;;21.91;64.86;100210.03;7404191;19;1536;-56
2022/06/10 06:34:30;;;;;;;;;;;;;;;21.88;65.19;100204.97;7403058;19;1847;-55
2022/06/10 06:36:58;;;;;;;;;;;;;;;21.93;65.27;100218.78;7405205;19;1547;-55
2022/06/10 06:39:29;;;;;;;;;;;;;;;21.88;65.40;100223.81;7404912;19;1166;-55
2022/06/10 06:41:58;;;;;;;;;;;;;;;21.88;65.17;100234.56;7405286;19;1016;-56
2022/06/10 06:44:26;;;;;;;;;;;;;;;21.90;65.39;100235.25;7402701;19;1745;-56
2022/06/10 06:46:55;;;;;;;;;;;;;;;21.90;65.28;100227.16;7403378;19;1454;-55
2022/06/10 06:49:40;;;;;;;;;;;;;;;21.87;65.04;100219.44;7403222;19;1575;-55
2022/06/10 06:52:09;;;;;;;;;;;;;;;21.94;64.99;100225.81;7402828;19;1603;-56
2022/06/10 06:54:40;;;;;;;;;;;;;;;21.95;65.10;100224.84;7403779;19;1858;-56
2022/06/10 06:57:09;;;;;;;;;;;;;;;21.94;64.85;100223.97;7404749;19;980;-56
2022/06/10 06:59:37;;;;;;;;;;;;;;;21.97;65.07;100228.19;7402616;19;1797;-55
2022/06/10 07:02:06;;;;;;;;;;;;;;;21.97;64.88;100215.56;7406497;19;1784;-56
2022/06/10 07:04:34;;;;;;;;;;;;;;;22.02;64.82;100220.44;7410337;19;1545;-56
2022/06/10 07:07:03;;;;;;;;;;;;;;;22.02;65.15;100223.13;7409766;19;1604;-56
2022/06/10 07:09:31;;;;;;;;;;;;;;;22.02;64.83;100228.50;7411224;19;1313;-56
2022/06/10 07:12:02;;;;;;;;;;;;;;;22.03;64.89;100222.97;7412321;19;995;-56
2022/06/10 07:14:30;;;;;;;;;;;;;;;22.02;64.91;100223.13;7408901;19;1843;-55
2022/06/10 07:16:58;;;;;;;;;;;;;;;22.06;64.82;100232.56;7409973;19;1855;-55
2022/06/10 07:19:27;;;;;;;;;;;;;;;22.02;65.18;100220.44;7409527;19;1642;-56
2022/06/10 07:21:55;;;;;;;;;;;;;;;22.00;65.41;100230.53;7411642;19;1635;-56
2022/06/10 07:24:23;;;;;;;;;;;;;;;22.09;64.86;100228.69;7411216;19;1607;-56
2022/06/10 07:26:52;;;;;;;;;;;;;;;22.12;64.65;100233.72;7411544;19;989;-56
2022/06/10 07:29:23;;;;;;;;;;;;;;;22.13;64.49;100233.56;7408821;19;1522;-56
2022/06/10 07:31:51;;;;;;;;;;;;;;;22.10;64.72;100231.19;7408981;19;1351;-56
2022/06/10 07:34:19;;;;;;;;;;;;;;;22.10;64.86;100241.97;7411010;19;1865;-55
2022/06/10 07:36:48;;;;;;;;;;;;;;;22.12;64.83;100233.72;7410737;19;1410;-55
2022/06/10 07:39:16;;;;;;;;;;;;;;;22.16;64.60;100235.94;7410571;19;1564;-56
2022/06/10 07:41:57;;;;;;;;;;;;;;;22.11;64.62;100226.69;7411629;19;960;-55
2022/06/10 07:44:29;;;;;;;;;;;;;;;22.14;64.67;100243.31;7408370;19;1745;-56
2022/06/10 07:46:58;;;;;;;;;;;;;;;22.13;64.82;100235.44;7409481;19;1642;-56
2022/06/10 07:49:27;;;;;;;;;;;;;;;22.13;64.48;100244.34;7408849;19;1378;-55
2022/06/10 07:51:55;;;;;;;;;;;;;;;22.11;64.59;100248.22;7410167;19;1564;-56
2022/06/10 07:54:23;;;;;;;;;;;;;;;22.13;64.43;100257.81;7409384;19;1865;-56
2022/06/10 07:56:52;;;;;;;;;;;;;;;22.16;64.33;100241.31;7410062;19;960;-56
2022/06/10 07:59:20;;;;;;;;;;;;;;;22.18;64.52;100223.16;7407323;19;1871;-55
2022/06/10 08:01:51;;;;;;;;;;;;;;;22.19;64.13;100240.13;7407572;19;1137;-55
2022/06/10 08:04:20;;;;;;;;;;;;;;;22.22;64.38;100251.41;7408790;19;1710;-56
2022/06/10 08:06:48;;;;;;;;;;;;;;;22.22;64.14;100235.25;7407707;19;1544;-55
2022/06/10 08:09:20;;;;;;;;;;;;;;;22.26;64.48;100245.72;7407869;19;1620;-57
2022/06/10 08:11:49;;;;;;;;;;;;;;;22.50;64.92;100251.09;7405034;19;1643;-58
2022/06/10 08:14:17;;;;;;;;;;;;;;;22.51;64.41;100255.44;7406539;19;1165;-56
2022/06/10 08:16:45;;;;;;;;;;;;;;;22.44;64.83;100249.03;7404581;19;1851;-55
2022/06/10 08:19:16;;;;;;;;;;;;;;;22.47;64.51;100248.72;7408363;19;1355;-58
2022/06/10 08:24:25;;;;;;;;;;;;;;;22.71;63.79;100255.06;7409171;19;1367;-55
2022/06/10 08:26:53;;;;;;;;;;;;;;;22.63;64.00;100254.06;7408888;19;1043;-56
2022/06/10 08:29:22;;;;;;;;;;;;;;;22.67;63.82;100246.47;7407040;19;1711;-55
2022/06/10 08:31:50;;;;;;;;;;;;;;;22.50;63.48;100253.78;7407773;19;1544;-55
2022/06/10 08:34:21;;;;;;;;;;;;;;;22.43;63.82;100255.47;7408783;19;1346;-55
2022/06/10 08:36:50;;;;;;;;;;;;;;;22.41;64.05;100260.19;7406687;19;1858;-56
2022/06/10 08:39:18;;;;;;;;;;;;;;;22.48;63.61;100265.72;7408190;19;1654;-55
2022/06/10 08:41:57;;;;;;;;;;;;;;;22.39;63.74;100271.13;7409769;19;952;-54
2022/06/10 08:44:30;;;;;;;;;;;;;;;22.52;63.40;100267.91;7406619;19;1667;-55
2022/06/10 08:47:19;;;;;;;;;;;;;;;22.43;63.69;100272.47;7408007;19;1091;-55
2022/06/10 08:50:05;;;;;;;;;;;;;;;22.33;63.80;100263.72;7406998;19;1613;-55
2022/06/10 08:52:38;;;;;;;;;;;;;;;22.32;63.50;100261.19;7408877;19;951;-55
2022/06/10 08:55:13;;;;;;;;;;;;;;;22.30;63.62;100257.81;7406602;19;1855;-55
2022/06/10 08:57:43;;;;;;;;;;;;;;;22.29;63.51;100262.38;7408158;19;1635;-55
2022/06/10 09:00:17;;;;;;;;;;;;;;;22.34;63.46;100264.56;7407289;19;1851;-55
2022/06/10 09:02:50;;;;;;;;;;;;;;;22.49;63.37;100262.84;7407251;19;1622;-55
2022/06/10 09:05:23;;;;;;;;;;;;;;;22.57;63.14;100260.16;7406524;19;1560;-55
2022/06/10 09:07:53;;;;;;;;;;;;;;;22.49;63.37;100246.69;7406302;19;1544;-55
2022/06/10 09:10:23;;;;;;;;;;;;;;;22.49;63.69;100252.09;7405559;19;1430;-54
2022/06/10 09:13:06;;;;;;;;;;;;;;;22.46;63.91;100249.72;7408466;19;1073;-55
2022/06/10 09:15:36;;;;;;;;;;;;;;;22.45;63.72;100256.13;7406781;19;1841;-57
2022/06/10 09:18:06;;;;;;;;;;;;;;;22.47;63.86;100258.66;7406872;19;1866;-55
2022/06/10 09:20:42;;;;;;;;;;;;;;;22.48;63.95;100261.16;7406247;19;1679;-57
2022/06/10 09:23:13;;;;;;;;;;;;;;;22.47;64.26;100259.50;7405357;19;1575;-58
2022/06/10 09:25:44;;;;;;;;;;;;;;;22.46;64.03;100252.41;7406403;19;1383;-57
2022/06/10 09:28:13;;;;;;;;;;;;;;;22.51;64.28;100239.28;7406311;19;1354;-57
2022/06/10 09:30:44;;;;;;;;;;;;;;;22.51;64.43;100250.06;7406928;19;1311;-57
2022/06/10 09:33:17;;;;;;;;;;;;;;;22.51;64.44;100243.84;7406277;19;1445;-59
2022/06/10 09:35:53;;;;;;;;;;;;;;;22.55;64.31;100247.88;7404502;19;1850;-58
2022/06/10 09:38:25;;;;;;;;;;;;;;;22.55;64.55;100281.03;7405769;19;1473;-56
2022/06/10 09:41:01;;;;;;;;;;;;;;;22.51;64.85;100260.84;7405774;19;1627;-54
2022/06/10 09:43:43;;;;;;;;;;;;;;;22.63;64.72;100259.47;7406414;19;1533;-57
2022/06/10 09:46:26;;;;;;;;;;;;;;;22.56;64.80;100246.84;7406092;19;1488;-56
2022/06/10 09:49:12;;;;;;;;;;;;;;;22.60;64.85;100250.88;7405876;19;1350;-56
2022/06/10 09:51:48;;;;;;;;;;;;;;;22.58;64.86;100266.38;7405863;19;1209;-58
2022/06/10 09:54:26;;;;;;;;;;;;;;;22.53;64.97;100257.97;7405255;19;1504;-56
2022/06/10 09:57:09;;;;;;;;;;;;;;;22.49;65.16;100257.47;7403721;19;1850;-56
2022/06/10 09:59:40;;;;;;;;;;;;;;;22.47;65.23;100259.50;7402837;19;1500;-56
2022/06/10 10:02:23;;;;;;;;;;;;;;;22.50;65.28;100259.16;7403658;19;1514;-58
2022/06/10 10:05:04;;;;;;;;;;;;;;;22.50;65.20;100251.09;7404841;19;1346;-57
2022/06/10 10:07:48;;;;;;;;;;;;;;;22.47;65.25;100250.56;7404028;19;1363;-56
2022/06/10 10:10:21;;;;;;;;;;;;;;;22.47;65.64;100246.03;7404039;19;1469;-56
2022/06/10 10:12:53;;;;;;;;;;;;;;;22.49;66.19;100262.84;7405347;19;1345;-55
2022/06/10 10:15:26;;;;;;;;;;;;;;;22.56;65.83;100253.09;7404105;19;1862;-54
2022/06/10 10:18:12;;;;;;;;;;;;;;;22.46;66.05;100255.09;7403613;19;1674;-56
2022/06/10 10:20:54;;;;;;;;;;;;;;;22.47;65.69;100256.81;7405072;19;1422;-56
2022/06/10 10:23:28;;;;;;;;;;;;;;;22.44;65.71;100251.75;7404786;19;1576;-57
2022/06/10 10:25:56;;;;;;;;;;;;;;;22.45;65.64;100245.34;7404247;19;1695;-56
2022/06/10 10:28:26;;;;;;;;;;;;;;;22.48;65.70;100255.78;7403827;19;1358;-57
2022/06/10 10:31:02;;;;;;;;;;;;;;;22.46;65.80;100243.50;7405253;19;1306;-56
2022/06/10 10:33:30;;;;;;;;;;;;;;;22.47;65.55;100243.31;7404846;19;1266;-56
2022/06/10 10:36:00;;;;;;;;;;;;;;;22.41;65.49;100260.19;7410660;19;1856;-56
2022/06/10 10:38:36;;;;;;;;;;;;;;;22.40;65.63;100259.34;7419186;19;1758;-56
2022/06/10 10:41:15;;;;;;;;;;;;;;;22.43;65.88;100264.38;7418732;19;1577;-57
2022/06/10 10:43:46;;;;;;;;;;;;;;;22.41;65.81;100270.97;7415516;19;1737;-56
2022/06/10 10:46:30;;;;;;;;;;;;;;;22.36;65.99;100251.75;7418770;19;1568;-56
2022/06/10 10:49:00;;;;;;;;;;;;;;;22.35;66.14;100256.31;7418736;19;1536;-57
2022/06/10 10:51:32;;;;;;;;;;;;;;;22.39;66.13;100257.66;7417352;19;1224;-57
2022/06/10 10:54:07;;;;;;;;;;;;;;;22.40;65.95;100274.66;7418513;19;1397;-56
2022/06/10 10:56:38;;;;;;;;;;;;;;;22.43;66.02;100258.16;7417828;19;1858;-56
2022/06/10 10:59:06;;;;;;;;;;;;;;;22.45;65.76;100250.75;7416027;19;1517;-56
2022/06/10 11:01:51;;;;;;;;;;;;;;;22.43;65.60;100247.38;7416503;19;1373;-56
2022/06/10 11:04:20;;;;;;;;;;;;;;;22.42;65.84;100259.16;7417142;19;1270;-57
2022/06/10 11:06:48;;;;;;;;;;;;;;;22.42;65.61;100251.94;7417447;19;1311;-56
2022/06/10 11:09:22;;;;;;;;;;;;;;;22.46;66.00;100260.50;7417203;19;1469;-56
2022/06/10 11:11:51;;;;;;;;;;;;;;;22.49;65.80;100253.94;7417276;19;1392;-56
2022/06/10 11:14:23;;;;;;;;;;;;;;;22.45;66.07;100245.34;7418538;19;1559;-57
2022/06/10 11:17:07;;;;;;;;;;;;;;;22.49;65.95;100238.59;7415179;19;1856;-56
2022/06/10 11:19:44;;;;;;;;;;;;;;;22.48;66.02;100238.78;7416896;19;1528;-56
2022/06/10 11:22:22;;;;;;;;;;;;;;;22.47;66.06;100237.94;7416733;19;1414;-56
2022/06/10 11:24:54;;;;;;;;;;;;;;;22.47;66.05;100248.72;7416585;19;1348;-57
2022/06/10 11:27:26;;;;;;;;;;;;;;;22.47;65.84;100242.50;7418466;19;1374;-57
2022/06/10 11:30:03;;;;;;;;;;;;;;;22.49;65.99;100248.56;7415929;19;1568;-57
2022/06/10 11:32:34;;;;;;;;;;;;;;;22.45;65.94;100234.56;7418073;19;1560;-56
2022/06/10 11:35:04;;;;;;;;;;;;;;;22.50;65.73;100240.31;7417599;19;1529;-56
2022/06/10 11:37:36;;;;;;;;;;;;;;;22.47;66.00;100213.69;7415087;19;1842;-56
2022/06/10 11:40:13;;;;;;;;;;;;;;;22.47;65.82;100216.38;7416134;19;1842;-56
2022/06/10 11:42:45;;;;;;;;;;;;;;;22.47;66.03;100247.88;7416687;19;1275;-56
2022/06/10 11:45:19;;;;;;;;;;;;;;;22.45;66.21;100223.81;7417168;19;1485;-56
2022/06/10 11:47:52;;;;;;;;;;;;;;;22.49;66.19;100235.91;7412299;19;1499;-56
2022/06/10 11:50:21;;;;;;;;;;;;;;;22.47;66.16;100243.31;7410186;19;1363;-56
2022/06/10 11:52:53;;;;;;;;;;;;;;;22.49;65.97;100238.59;7408784;19;1263;-56
2022/06/10 11:55:28;;;;;;;;;;;;;;;22.49;66.06;100246.69;7409818;19;1488;-56
2022/06/10 12:00:43;;;;;;;;;;;;;;;22.48;65.69;100225.31;7410332;19;1108;-56
2022/06/10 12:03:16;;;;;;;;;;;;;;;22.51;65.97;100222.28;7409541;19;1464;-56
2022/06/10 12:05:52;;;;;;;;;;;;;;;22.55;65.56;100229.84;7409001;19;1763;-56
2022/06/10 12:08:27;;;;;;;;;;;;;;;22.55;65.70;100235.22;7408986;19;1454;-56
2022/06/10 12:11:00;;;;;;;;;;;;;;;22.48;65.82;100228.00;7407481;19;1515;-56
2022/06/10 12:13:29;;;;;;;;;;;;;;;22.46;65.44;100212.00;7405704;19;1738;-57
2022/06/10 12:15:59;;;;;;;;;;;;;;;22.46;65.43;100225.47;7409356;19;1856;-57
2022/06/10 12:18:29;;;;;;;;;;;;;;;22.47;65.45;100235.25;7409918;19;1500;-56
2022/06/10 12:21:01;;;;;;;;;;;;;;;22.50;65.66;100232.22;7409718;19;1494;-57
2022/06/10 12:23:30;;;;;;;;;;;;;;;22.45;65.38;100250.75;7407964;19;1435;-56
2022/06/10 12:26:11;;;;;;;;;;;;;;;22.46;65.66;100257.78;7409141;19;1536;-56
2022/06/10 12:28:42;;;;;;;;;;;;;;;22.49;65.75;100257.47;7408696;19;1371;-56
2022/06/10 12:31:21;;;;;;;;;;;;;;;22.48;65.54;100269.25;7408205;19;1460;-57
2022/06/10 12:33:53;;;;;;;;;;;;;;;22.54;65.73;100271.28;7408775;19;1508;-56
2022/06/10 12:36:25;;;;;;;;;;;;;;;22.53;65.73;100264.19;7407210;19;1861;-56
2022/06/10 12:38:55;;;;;;;;;;;;;;;22.49;65.77;100268.25;7408840;19;1359;-57
2022/06/10 12:41:30;;;;;;;;;;;;;;;22.47;66.21;100264.88;7409679;19;949;-57
2022/06/10 12:44:01;;;;;;;;;;;;;;;22.42;65.93;100270.78;7408410;19;1427;-56
2022/06/10 12:46:40;;;;;;;;;;;;;;;22.38;66.53;100265.88;7408218;19;1343;-56
2022/06/10 12:49:10;;;;;;;;;;;;;;;22.37;66.35;100272.31;7407557;19;1749;-58
2022/06/10 12:51:43;;;;;;;;;;;;;;;22.38;67.21;100264.06;7407763;19;1289;-56
2022/06/10 12:54:18;;;;;;;;;;;;;;;22.36;67.89;100249.91;7407418;19;1654;-57
2022/06/10 12:56:49;;;;;;;;;;;;;;;22.39;68.48;100260.34;7407183;19;1861;-55
2022/06/10 12:59:24;;;;;;;;;;;;;;;22.39;67.85;100248.72;7405922;19;1504;-56
2022/06/10 13:01:53;;;;;;;;;;;;;;;22.44;68.62;100273.28;7405219;19;1559;-56
2022/06/10 13:04:39;;;;;;;;;;;;;;;22.44;67.71;100270.59;7408414;19;1615;-58
2022/06/10 13:07:14;;;;;;;;;;;;;;;22.41;67.77;100255.63;7405927;19;1635;-56
2022/06/10 13:09:43;;;;;;;;;;;;;;;22.44;69.31;100254.44;7407209;19;1516;-54
2022/06/10 13:12:26;;;;;;;;;;;;;;;22.42;69.40;100267.22;7408737;19;957;-58
2022/06/10 13:15:13;;;;;;;;;;;;;;;22.48;68.74;100260.31;7406361;19;1581;-58
2022/06/10 13:17:53;;;;;;;;;;;;;;;22.48;70.11;100244.16;7404672;19;1888;-57
2022/06/10 13:20:24;;;;;;;;;;;;;;;22.54;69.66;100256.94;7407143;19;1381;-58
2022/06/10 13:23:08;;;;;;;;;;;;;;;22.53;69.21;100264.19;7407272;19;1376;-56